createdAt,value
2023-09-03T00:00:00.190Z, 0
2023-09-03T00:02:00.666Z, 0
2023-09-03T00:04:00.154Z, 0
2023-09-03T00:06:00.116Z, 0
2023-09-03T00:08:00.098Z, 0
2023-09-03T00:10:00.163Z, 0
2023-09-03T00:12:00.160Z, 0
2023-09-03T00:14:00.126Z, 0
2023-09-03T00:16:00.174Z, 0
2023-09-03T00:18:00.316Z, 0
2023-09-03T00:20:00.194Z, 0
2023-09-03T00:22:00.099Z, 0
2023-09-03T00:24:00.149Z, 0
2023-09-03T00:26:00.144Z, 0
2023-09-03T00:28:00.136Z, 0
2023-09-03T00:30:00.185Z, 0
2023-09-03T00:32:00.095Z, 0
2023-09-03T00:34:00.110Z, 0
2023-09-03T00:36:00.154Z, 0
2023-09-03T00:38:00.124Z, 0
2023-09-03T00:40:00.179Z, 0
2023-09-03T00:42:00.135Z, 0
2023-09-03T00:44:00.103Z, 0
2023-09-03T00:46:00.164Z, 0
2023-09-03T00:48:00.197Z, 0
2023-09-03T00:50:00.141Z, 0
2023-09-03T00:52:00.117Z, 0
2023-09-03T00:54:00.469Z, 0
2023-09-03T00:56:00.113Z, 0
2023-09-03T00:58:00.117Z, 0
2023-09-03T01:00:00.263Z, 0
2023-09-03T01:02:00.158Z, 0
2023-09-03T01:04:00.188Z, 0
2023-09-03T01:06:00.153Z, 0
2023-09-03T01:08:00.133Z, 0
2023-09-03T01:10:00.146Z, 0
2023-09-03T01:12:00.325Z, 0
2023-09-03T01:14:00.114Z, 0
2023-09-03T01:16:00.174Z, 0
2023-09-03T01:18:00.160Z, 0
2023-09-03T01:20:00.124Z, 0
2023-09-03T01:22:00.135Z, 0
2023-09-03T01:24:00.121Z, 0
2023-09-03T01:26:00.101Z, 0
2023-09-03T01:28:00.095Z, 0
2023-09-03T01:30:00.146Z, 0
2023-09-03T01:32:00.105Z, 0
2023-09-03T01:34:00.099Z, 0
2023-09-03T01:36:00.135Z, 0
2023-09-03T01:38:00.113Z, 0
2023-09-03T01:40:00.116Z, 0
2023-09-03T01:42:00.126Z, 0
2023-09-03T01:44:00.119Z, 0
2023-09-03T01:46:00.118Z, 0
2023-09-03T01:48:00.222Z, 0
2023-09-03T01:50:00.157Z, 0
2023-09-03T01:52:00.144Z, 0
2023-09-03T01:54:00.123Z, 0
2023-09-03T01:56:00.121Z, 0
2023-09-03T01:58:00.106Z, 0
2023-09-03T02:00:00.143Z, 0
2023-09-03T02:02:00.151Z, 0
2023-09-03T02:04:00.147Z, 0
2023-09-03T02:06:00.128Z, 0
2023-09-03T02:08:00.131Z, 0
2023-09-03T02:10:00.243Z, 0
2023-09-03T02:12:00.116Z, 0
2023-09-03T02:14:00.139Z, 0
2023-09-03T02:16:00.096Z, 0
2023-09-03T02:18:00.159Z, 0
2023-09-03T02:20:00.123Z, 0
2023-09-03T02:22:00.094Z, 0
2023-09-03T02:24:00.142Z, 0
2023-09-03T02:26:00.109Z, 0
2023-09-03T02:28:00.117Z, 0
2023-09-03T02:30:00.129Z, 0
2023-09-03T02:32:00.118Z, 0
2023-09-03T02:34:00.105Z, 0
2023-09-03T02:36:00.120Z, 0
2023-09-03T02:38:00.111Z, 0
2023-09-03T02:40:00.182Z, 0
2023-09-03T02:42:00.110Z, 0
2023-09-03T02:44:00.097Z, 0
2023-09-03T02:46:00.187Z, 0
2023-09-03T02:48:00.220Z, 0
2023-09-03T02:50:00.146Z, 0
2023-09-03T02:52:00.106Z, 0
2023-09-03T02:54:00.112Z, 0
2023-09-03T02:56:00.147Z, 0
2023-09-03T02:58:00.720Z, 0
2023-09-03T03:00:00.149Z, 0
2023-09-03T03:02:00.124Z, 0
2023-09-03T03:04:00.095Z, 0
2023-09-03T03:06:00.179Z, 0
2023-09-03T03:08:00.088Z, 0
2023-09-03T03:10:00.181Z, 0
2023-09-03T03:12:00.125Z, 0
2023-09-03T03:14:00.108Z, 0
2023-09-03T03:16:00.137Z, 0
2023-09-03T03:18:00.150Z, 0
2023-09-03T03:20:00.140Z, 0
2023-09-03T03:22:00.114Z, 0
2023-09-03T03:24:00.136Z, 0
2023-09-03T03:26:00.516Z, 0
2023-09-03T03:28:00.130Z, 0
2023-09-03T03:30:00.152Z, 0
2023-09-03T03:32:00.147Z, 0
2023-09-03T03:34:00.120Z, 0
2023-09-03T03:36:00.134Z, 0
2023-09-03T03:38:00.139Z, 0
2023-09-03T03:40:00.160Z, 0
2023-09-03T03:42:00.135Z, 0
2023-09-03T03:44:00.115Z, 0
2023-09-03T03:46:00.135Z, 0
2023-09-03T03:48:00.230Z, 0
2023-09-03T03:50:00.116Z, 0
2023-09-03T03:52:00.100Z, 0
2023-09-03T03:54:00.119Z, 0
2023-09-03T03:56:00.126Z, 0
2023-09-03T03:58:00.101Z, 0
2023-09-03T04:00:00.199Z, 0
2023-09-03T04:02:00.162Z, 0
2023-09-03T04:04:00.131Z, 0
2023-09-03T04:06:00.121Z, 0
2023-09-03T04:08:00.099Z, 0
2023-09-03T04:10:00.157Z, 0
2023-09-03T04:12:00.114Z, 0
2023-09-03T04:14:00.110Z, 0
2023-09-03T04:16:00.106Z, 0
2023-09-03T04:18:00.167Z, 0
2023-09-03T04:20:00.145Z, 0
2023-09-03T04:22:00.105Z, 0
2023-09-03T04:24:00.122Z, 0
2023-09-03T04:26:00.107Z, 0
2023-09-03T04:28:00.106Z, 0
2023-09-03T04:30:00.140Z, 0
2023-09-03T04:32:00.113Z, 0
2023-09-03T04:34:00.119Z, 0.01
2023-09-03T04:36:00.110Z, 0.01
2023-09-03T04:38:00.091Z, 0.01
2023-09-03T04:40:00.141Z, 0.01
2023-09-03T04:42:00.108Z, 0.01
2023-09-03T04:44:00.132Z, 0.02
2023-09-03T04:46:00.122Z, 0.02
2023-09-03T04:48:00.292Z, 0.02
2023-09-03T04:50:00.130Z, 0.03
2023-09-03T04:52:00.118Z, 0.03
2023-09-03T04:54:00.121Z, 0.04
2023-09-03T04:56:00.106Z, 0.05
2023-09-03T04:58:00.114Z, 0.06
2023-09-03T05:00:00.163Z, 0.07
2023-09-03T05:02:00.165Z, 0.08
2023-09-03T05:04:00.154Z, 0.1
2023-09-03T05:06:00.119Z, 0.11
2023-09-03T05:08:00.094Z, 0.13
2023-09-03T05:10:00.154Z, 0.15
2023-09-03T05:12:00.114Z, 0.18
2023-09-03T05:14:00.117Z, 0.2
2023-09-03T05:16:00.121Z, 0.23
2023-09-03T05:18:00.150Z, 0.25
2023-09-03T05:20:00.154Z, 0.27
2023-09-03T05:22:00.123Z, 0.29
2023-09-03T05:24:00.118Z, 0.31
2023-09-03T05:26:00.107Z, 0.33
2023-09-03T05:28:00.121Z, 0.34
2023-09-03T05:30:00.186Z, 0.34
2023-09-03T05:32:00.124Z, 0.33
2023-09-03T05:34:00.099Z, 0.33
2023-09-03T05:36:00.128Z, 0.34
2023-09-03T05:38:00.296Z, 0.34
2023-09-03T05:40:00.134Z, 0.34
2023-09-03T05:42:00.110Z, 0.33
2023-09-03T05:44:00.098Z, 0.31
2023-09-03T05:46:00.171Z, 0.31
2023-09-03T05:48:00.156Z, 0.3
2023-09-03T05:50:00.162Z, 0.29
2023-09-03T05:52:00.125Z, 0.29
2023-09-03T05:54:00.113Z, 0.29
2023-09-03T05:56:00.126Z, 0.3
2023-09-03T05:58:00.105Z, 0.31
2023-09-03T06:00:00.151Z, 0.34
2023-09-03T06:02:00.106Z, 0.37
2023-09-03T06:04:00.102Z, 0.39
2023-09-03T06:06:00.113Z, 0.41
2023-09-03T06:08:00.104Z, 0.42
2023-09-03T06:10:00.128Z, 0.41
2023-09-03T06:12:00.127Z, 0.4
2023-09-03T06:14:00.122Z, 0.43
2023-09-03T06:16:00.133Z, 0.45
2023-09-03T06:18:00.231Z, 0.46
2023-09-03T06:20:00.103Z, 0.48
2023-09-03T06:22:00.125Z, 0.51
2023-09-03T06:24:00.107Z, 0.55
2023-09-03T06:26:00.096Z, 0.59
2023-09-03T06:28:00.126Z, 0.61
2023-09-03T06:30:00.170Z, 0.64
2023-09-03T06:32:00.104Z, 0.66
2023-09-03T06:34:00.117Z, 0.71
2023-09-03T06:36:00.111Z, 0.76
2023-09-03T06:38:00.103Z, 0.83
2023-09-03T06:40:00.127Z, 0.85
2023-09-03T06:42:00.106Z, 0.85
2023-09-03T06:44:00.089Z, 0.88
2023-09-03T06:46:00.101Z, 0.85
2023-09-03T06:48:00.321Z, 0.88
2023-09-03T06:50:00.335Z, 0.88
2023-09-03T06:52:00.231Z, 0.9
2023-09-03T06:54:00.123Z, 1.01
2023-09-03T06:56:00.097Z, 1.01
2023-09-03T06:58:00.111Z, 1.01
2023-09-03T07:00:00.275Z, 0.98
2023-09-03T07:02:00.099Z, 1
2023-09-03T07:04:00.206Z, 1.02
2023-09-03T07:06:00.109Z, 1.12
2023-09-03T07:08:00.093Z, 1.1
2023-09-03T07:10:00.137Z, 1.08
2023-09-03T07:12:00.136Z, 1.06
2023-09-03T07:14:00.095Z, 1.09
2023-09-03T07:16:00.115Z, 1.09
2023-09-03T07:18:00.154Z, 1.29
2023-09-03T07:20:00.106Z, 1.48
2023-09-03T07:22:00.103Z, 1.44
2023-09-03T07:24:00.113Z, 1.33
2023-09-03T07:26:00.092Z, 1.34
2023-09-03T07:28:00.098Z, 1.22
2023-09-03T07:30:00.160Z, 1.16
2023-09-03T07:32:00.096Z, 1.1
2023-09-03T07:34:00.109Z, 1.03
2023-09-03T07:36:00.114Z, 0.97
2023-09-03T07:38:00.087Z, 0.89
2023-09-03T07:40:00.146Z, 0.86
2023-09-03T07:42:00.119Z, 0.83
2023-09-03T07:44:00.115Z, 0.85
2023-09-03T07:46:00.115Z, 0.83
2023-09-03T07:48:00.141Z, 0.84
2023-09-03T07:50:00.169Z, 0.8
2023-09-03T07:52:00.105Z, 0.83
2023-09-03T07:54:00.130Z, 0.81
2023-09-03T07:56:00.101Z, 0.79
2023-09-03T07:58:00.090Z, 0.78
2023-09-03T08:00:00.182Z, 0.78
2023-09-03T08:02:00.217Z, 0.71
2023-09-03T08:04:00.157Z, 0.78
2023-09-03T08:06:00.141Z, 0.87
2023-09-03T08:08:00.120Z, 1.02
2023-09-03T08:10:00.142Z, 1.1
2023-09-03T08:12:00.144Z, 1.4
2023-09-03T08:14:00.097Z, 1.51
2023-09-03T08:16:00.194Z, 1.27
2023-09-03T08:18:00.205Z, 1.29
2023-09-03T08:20:00.158Z, 1.3
2023-09-03T08:22:00.107Z, 1.38
2023-09-03T08:24:00.176Z, 1.59
2023-09-03T08:26:02.812Z, 1.61
2023-09-03T08:28:00.123Z, 1.48
2023-09-03T08:30:00.144Z, 1.5
2023-09-03T08:32:02.070Z, 1.29
2023-09-03T08:34:00.106Z, 1.36
2023-09-03T08:36:00.112Z, 1.73
2023-09-03T08:38:00.101Z, 2.04
2023-09-03T08:40:00.477Z, 2.46
2023-09-03T08:42:00.124Z, 2.46
2023-09-03T08:44:00.111Z, 2.48
2023-09-03T08:46:00.191Z, 2.94
2023-09-03T08:48:00.211Z, 1.92
2023-09-03T08:50:00.138Z, 1.52
2023-09-03T08:52:00.449Z, 1.85
2023-09-03T08:54:00.155Z, 1.94
2023-09-03T08:56:00.525Z, 1.96
2023-09-03T08:58:00.576Z, 2.34
2023-09-03T09:00:00.166Z, 2.2
2023-09-03T09:02:00.123Z, 2.11
2023-09-03T09:04:00.201Z, 2.58
2023-09-03T09:06:00.120Z, 1.97
2023-09-03T09:08:00.113Z, 1.81
2023-09-03T09:10:00.233Z, 1.66
2023-09-03T09:12:00.124Z, 2.06
2023-09-03T09:14:00.135Z, 2.97
2023-09-03T09:16:00.173Z, 2.49
2023-09-03T09:18:00.172Z, 2.27
2023-09-03T09:20:00.157Z, 2.33
2023-09-03T09:22:00.119Z, 1.86
2023-09-03T09:24:00.112Z, 2
2023-09-03T09:26:00.116Z, 2.05
2023-09-03T09:28:00.101Z, 2.36
2023-09-03T09:30:00.166Z, 3.42
2023-09-03T09:32:00.089Z, 4.08
2023-09-03T09:34:00.097Z, 4.18
2023-09-03T09:36:00.133Z, 3.23
2023-09-03T09:38:00.097Z, 3.97
2023-09-03T09:40:00.119Z, 4.25
2023-09-03T09:42:00.136Z, 4.82
2023-09-03T09:44:00.092Z, 4.35
2023-09-03T09:46:00.107Z, 2.3
2023-09-03T09:48:00.167Z, 2.1
2023-09-03T09:50:00.171Z, 4.15
2023-09-03T09:52:00.101Z, 3.25
2023-09-03T09:54:00.121Z, 4.72
2023-09-03T09:56:00.165Z, 4.27
2023-09-03T09:58:00.119Z, 4.43
2023-09-03T10:00:00.205Z, 4.25
2023-09-03T10:02:00.088Z, 4.9
2023-09-03T10:04:00.142Z, 4.63
2023-09-03T10:06:00.109Z, 4.55
2023-09-03T10:08:00.105Z, 4.28
2023-09-03T10:10:00.131Z, 4.36
2023-09-03T10:12:00.129Z, 4.47
2023-09-03T10:14:00.133Z, 4.43
2023-09-03T10:16:00.185Z, 4.66
2023-09-03T10:18:00.169Z, 4.03
2023-09-03T10:20:00.182Z, 4.17
2023-09-03T10:22:00.104Z, 3.81
2023-09-03T10:24:00.121Z, 3.85
2023-09-03T10:26:05.483Z, 2.5
2023-09-03T10:28:00.123Z, 2.38
2023-09-03T10:30:00.150Z, 3.9
2023-09-03T10:32:00.131Z, 4.51
2023-09-03T10:34:00.101Z, 3.96
2023-09-03T10:36:00.110Z, 5.13
2023-09-03T10:38:00.105Z, 5.19
2023-09-03T10:40:00.136Z, 3.78
2023-09-03T10:42:00.116Z, 3.86
2023-09-03T10:44:00.093Z, 2.28
2023-09-03T10:46:00.136Z, 3.27
2023-09-03T10:48:00.207Z, 2.89
2023-09-03T10:50:00.119Z, 4.58
2023-09-03T10:52:00.152Z, 5.65
2023-09-03T10:54:00.119Z, 3.84
2023-09-03T10:56:00.107Z, 3.2
2023-09-03T10:58:00.099Z, 5.07
2023-09-03T11:00:00.162Z, 6.12
2023-09-03T11:02:00.121Z, 5.28
2023-09-03T11:04:00.135Z, 5.41
2023-09-03T11:06:00.471Z, 5.16
2023-09-03T11:08:00.107Z, 5.43
2023-09-03T11:10:00.126Z, 5.39
2023-09-03T11:12:00.185Z, 5.98
2023-09-03T11:14:00.106Z, 6.3
2023-09-03T11:16:00.141Z, 6.79
2023-09-03T11:18:00.205Z, 5.63
2023-09-03T11:20:00.121Z, 5.2
2023-09-03T11:22:00.103Z, 5.12
2023-09-03T11:24:00.128Z, 6.29
2023-09-03T11:26:00.112Z, 4.77
2023-09-03T11:28:00.101Z, 4.61
2023-09-03T11:30:00.154Z, 4.86
2023-09-03T11:32:00.140Z, 4.72
2023-09-03T11:34:00.122Z, 5.47
2023-09-03T11:36:00.125Z, 3.15
2023-09-03T11:38:00.100Z, 4.71
2023-09-03T11:40:00.140Z, 5.95
2023-09-03T11:42:00.128Z, 5.7
2023-09-03T11:44:00.111Z, 4.89
2023-09-03T11:46:01.264Z, 5.61
2023-09-03T11:48:00.143Z, 5.14
2023-09-03T11:50:00.126Z, 5.29
2023-09-03T11:52:00.151Z, 4.93
2023-09-03T11:54:00.137Z, 5.01
2023-09-03T11:56:00.114Z, 4.77
2023-09-03T11:58:00.108Z, 4.92
2023-09-03T12:00:00.168Z, 4.88
2023-09-03T12:02:00.103Z, 4.91
2023-09-03T12:04:00.238Z, 4.84
2023-09-03T12:06:00.142Z, 4.87
2023-09-03T12:08:00.130Z, 4.55
2023-09-03T12:10:00.122Z, 4.35
2023-09-03T12:12:00.168Z, 3.93
2023-09-03T12:14:00.147Z, 3.73
2023-09-03T12:16:00.140Z, 2.87
2023-09-03T12:18:00.137Z, 3.72
2023-09-03T12:20:00.139Z, 3.76
2023-09-03T12:22:00.179Z, 3.87
2023-09-03T12:24:00.120Z, 4.03
2023-09-03T12:26:00.110Z, 3.58
2023-09-03T12:28:00.111Z, 4.31
2023-09-03T12:30:00.146Z, 4.14
2023-09-03T12:32:00.113Z, 3.93
2023-09-03T12:34:00.109Z, 3.84
2023-09-03T12:36:00.160Z, 4.1
2023-09-03T12:38:00.115Z, 4.12
2023-09-03T12:40:00.164Z, 3.95
2023-09-03T12:42:00.139Z, 4.07
2023-09-03T12:44:00.157Z, 3.66
2023-09-03T12:46:00.184Z, 3.22
2023-09-03T12:48:00.173Z, 3.4
2023-09-03T12:50:00.144Z, 3.23
2023-09-03T12:52:00.090Z, 3.33
2023-09-03T12:54:00.161Z, 3.27
2023-09-03T12:56:00.094Z, 3.25
2023-09-03T12:58:00.104Z, 3.28
2023-09-03T13:00:00.192Z, 3.26
2023-09-03T13:02:00.110Z, 3.23
2023-09-03T13:04:00.214Z, 3.11
2023-09-03T13:06:00.112Z, 3.22
2023-09-03T13:08:00.091Z, 3.55
2023-09-03T13:10:00.141Z, 3.56
2023-09-03T13:12:00.125Z, 3.26
2023-09-03T13:14:00.084Z, 3.24
2023-09-03T13:16:00.115Z, 3.1
2023-09-03T13:18:00.220Z, 2.98
2023-09-03T13:20:00.168Z, 3
2023-09-03T13:22:00.147Z, 3.07
2023-09-03T13:24:00.110Z, 3.03
2023-09-03T13:26:00.107Z, 3.2
2023-09-03T13:28:00.105Z, 3.02
2023-09-03T13:30:00.139Z, 2.97
2023-09-03T13:32:00.174Z, 2.96
2023-09-03T13:34:00.122Z, 2.94
2023-09-03T13:36:00.121Z, 2.82
2023-09-03T13:38:00.093Z, 2.76
2023-09-03T13:40:00.352Z, 2.72
2023-09-03T13:42:00.277Z, 2.62
2023-09-03T13:44:00.272Z, 2.7
2023-09-03T13:46:00.553Z, 2.82
2023-09-03T13:48:00.182Z, 2.79
2023-09-03T13:50:00.388Z, 2.69
2023-09-03T13:52:00.638Z, 2.6
2023-09-03T13:54:00.606Z, 2.59
2023-09-03T13:56:00.107Z, 2.58
2023-09-03T13:58:00.102Z, 2.53
2023-09-03T14:00:00.197Z, 2.47
2023-09-03T14:02:00.131Z, 2.43
2023-09-03T14:04:00.185Z, 2.35
2023-09-03T14:06:00.107Z, 2.3
2023-09-03T14:08:00.100Z, 2.24
2023-09-03T14:10:00.123Z, 2.18
2023-09-03T14:12:00.104Z, 2.15
2023-09-03T14:14:00.111Z, 2.1
2023-09-03T14:16:00.159Z, 2.08
2023-09-03T14:18:00.189Z, 2.08
2023-09-03T14:20:00.107Z, 2.09
2023-09-03T14:22:00.089Z, 2.15
2023-09-03T14:24:00.116Z, 2.25
2023-09-03T14:26:00.111Z, 2.32
2023-09-03T14:28:00.178Z, 2.37
2023-09-03T14:30:00.194Z, 2.37
2023-09-03T14:32:00.091Z, 2.36
2023-09-03T14:34:00.097Z, 2.42
2023-09-03T14:36:00.138Z, 2.48
2023-09-03T14:38:00.109Z, 2.44
2023-09-03T14:40:00.271Z, 2.28
2023-09-03T14:42:00.140Z, 2.12
2023-09-03T14:44:00.093Z, 2.09
2023-09-03T14:46:00.132Z, 2.11
2023-09-03T14:48:00.437Z, 2.06
2023-09-03T14:50:00.250Z, 2.19
2023-09-03T14:52:00.461Z, 1.96
2023-09-03T14:54:00.116Z, 1.9
2023-09-03T14:56:00.105Z, 1.94
2023-09-03T14:58:00.096Z, 1.95
2023-09-03T15:00:00.234Z, 2.05
2023-09-03T15:02:00.213Z, 2.09
2023-09-03T15:04:00.164Z, 2.01
2023-09-03T15:06:00.209Z, 2.21
2023-09-03T15:08:00.098Z, 2.26
2023-09-03T15:10:00.126Z, 2.11
2023-09-03T15:12:00.124Z, 2.03
2023-09-03T15:14:00.258Z, 2.05
2023-09-03T15:16:00.113Z, 2.17
2023-09-03T15:18:00.158Z, 2.2
2023-09-03T15:20:00.133Z, 2.14
2023-09-03T15:22:00.090Z, 1.98
2023-09-03T15:24:00.113Z, 1.99
2023-09-03T15:26:00.091Z, 2.02
2023-09-03T15:28:00.130Z, 2.19
2023-09-03T15:30:00.131Z, 2.36
2023-09-03T15:32:00.116Z, 2.37
2023-09-03T15:34:00.165Z, 2.23
2023-09-03T15:36:00.153Z, 2.21
2023-09-03T15:38:00.102Z, 2.15
2023-09-03T15:40:00.132Z, 2.05
2023-09-03T15:42:00.150Z, 1.88
2023-09-03T15:44:00.101Z, 1.74
2023-09-03T15:46:00.133Z, 1.7
2023-09-03T15:48:00.209Z, 1.54
2023-09-03T15:50:00.146Z, 1.46
2023-09-03T15:52:00.113Z, 1.37
2023-09-03T15:54:00.129Z, 1.2
2023-09-03T15:56:00.127Z, 1.32
2023-09-03T15:58:00.101Z, 1.4
2023-09-03T16:00:00.187Z, 1.48
2023-09-03T16:02:00.114Z, 1.5
2023-09-03T16:04:00.095Z, 1.56
2023-09-03T16:06:00.122Z, 1.69
2023-09-03T16:08:00.116Z, 1.52
2023-09-03T16:10:00.135Z, 1.56
2023-09-03T16:12:00.213Z, 1.41
2023-09-03T16:14:00.225Z, 1.37
2023-09-03T16:16:00.140Z, 1.46
2023-09-03T16:18:00.220Z, 1.39
2023-09-03T16:20:00.152Z, 1.3
2023-09-03T16:22:00.093Z, 1.26
2023-09-03T16:24:00.117Z, 1.17
2023-09-03T16:26:00.159Z, 1.23
2023-09-03T16:28:00.109Z, 1.22
2023-09-03T16:30:00.154Z, 1.27
2023-09-03T16:32:00.413Z, 1.24
2023-09-03T16:34:00.212Z, 0.98
2023-09-03T16:36:00.139Z, 0.93
2023-09-03T16:38:00.109Z, 0.93
2023-09-03T16:40:00.165Z, 0.97
2023-09-03T16:42:00.127Z, 0.92
2023-09-03T16:44:00.204Z, 0.87
2023-09-03T16:46:00.106Z, 0.83
2023-09-03T16:48:00.159Z, 0.8
2023-09-03T16:50:01.397Z, 0.79
2023-09-03T16:52:00.107Z, 0.77
2023-09-03T16:54:00.118Z, 0.75
2023-09-03T16:56:00.102Z, 0.76
2023-09-03T16:58:00.107Z, 0.7
2023-09-03T17:00:00.419Z, 0.67
2023-09-03T17:02:00.150Z, 0.65
2023-09-03T17:04:00.113Z, 0.63
2023-09-03T17:06:00.183Z, 0.62
2023-09-03T17:08:00.394Z, 0.58
2023-09-03T17:10:00.129Z, 0.56
2023-09-03T17:12:00.122Z, 0.55
2023-09-03T17:14:00.137Z, 0.51
2023-09-03T17:16:00.206Z, 0.49
2023-09-03T17:18:00.217Z, 0.47
2023-09-03T17:20:00.150Z, 0.45
2023-09-03T17:22:00.104Z, 0.43
2023-09-03T17:24:00.116Z, 0.4
2023-09-03T17:26:00.416Z, 0.37
2023-09-03T17:28:00.103Z, 0.35
2023-09-03T17:30:00.164Z, 0.32
2023-09-03T17:32:00.131Z, 0.3
2023-09-03T17:34:00.100Z, 0.27
2023-09-03T17:36:00.136Z, 0.25
2023-09-03T17:38:00.111Z, 0.23
2023-09-03T17:40:00.194Z, 0.21
2023-09-03T17:42:00.203Z, 0.19
2023-09-03T17:44:00.145Z, 0.17
2023-09-03T17:46:00.151Z, 0.15
2023-09-03T17:48:00.187Z, 0.13
2023-09-03T17:50:00.142Z, 0.12
2023-09-03T17:52:00.109Z, 0.11
2023-09-03T17:54:00.130Z, 0.09
2023-09-03T17:56:00.129Z, 0.08
2023-09-03T17:58:00.115Z, 0.07
2023-09-03T18:00:00.171Z, 0.06
2023-09-03T18:02:00.147Z, 0.05
2023-09-03T18:04:00.113Z, 0.04
2023-09-03T18:06:00.122Z, 0.03
2023-09-03T18:08:00.090Z, 0.03
2023-09-03T18:10:00.145Z, 0.02
2023-09-03T18:12:00.127Z, 0.02
2023-09-03T18:14:00.134Z, 0.02
2023-09-03T18:16:00.153Z, 0.02
2023-09-03T18:18:00.126Z, 0.01
2023-09-03T18:20:00.116Z, 0.01
2023-09-03T18:22:00.097Z, 0.01
2023-09-03T18:24:00.125Z, 0
2023-09-03T18:26:00.104Z, 0
2023-09-03T18:28:00.089Z, 0
2023-09-03T18:30:00.129Z, 0
2023-09-03T18:32:00.101Z, 0
2023-09-03T18:34:00.101Z, 0
2023-09-03T18:36:00.206Z, 0
2023-09-03T18:38:00.103Z, 0
2023-09-03T18:40:00.142Z, 0
2023-09-03T18:42:00.137Z, 0
2023-09-03T18:44:00.095Z, 0
2023-09-03T18:46:00.109Z, 0
2023-09-03T18:48:00.209Z, 0
2023-09-03T18:50:00.117Z, 0
2023-09-03T18:52:00.110Z, 0
2023-09-03T18:54:00.117Z, 0
2023-09-03T18:56:00.272Z, 0
2023-09-03T18:58:00.396Z, 0
2023-09-03T19:00:00.278Z, 0
2023-09-03T19:02:00.136Z, 0
2023-09-03T19:04:00.563Z, 0
2023-09-03T19:06:00.135Z, 0
2023-09-03T19:08:00.117Z, 0
2023-09-03T19:10:00.632Z, 0
2023-09-03T19:12:00.121Z, 0
2023-09-03T19:14:00.095Z, 0
2023-09-03T19:16:00.087Z, 0
2023-09-03T19:18:00.153Z, 0
2023-09-03T19:20:00.141Z, 0
2023-09-03T19:22:00.096Z, 0
2023-09-03T19:24:00.167Z, 0
2023-09-03T19:26:00.090Z, 0
2023-09-03T19:28:00.103Z, 0
2023-09-03T19:30:00.167Z, 0
2023-09-03T19:32:00.100Z, 0
2023-09-03T19:34:14.294Z, 0
2023-09-03T19:36:00.176Z, 0
2023-09-03T19:38:00.102Z, 0
2023-09-03T19:40:00.188Z, 0
2023-09-03T19:42:00.115Z, 0
2023-09-03T19:44:00.098Z, 0
2023-09-03T19:46:00.139Z, 0
2023-09-03T19:48:00.174Z, 0
2023-09-03T19:50:00.141Z, 0
2023-09-03T19:52:00.111Z, 0
2023-09-03T19:54:00.153Z, 0
2023-09-03T19:56:00.107Z, 0
2023-09-03T19:58:00.112Z, 0
2023-09-03T20:00:00.158Z, 0
2023-09-03T20:02:00.152Z, 0
2023-09-03T20:04:00.165Z, 0
2023-09-03T20:06:00.110Z, 0
2023-09-03T20:08:00.107Z, 0
2023-09-03T20:10:00.120Z, 0
2023-09-03T20:12:00.113Z, 0
2023-09-03T20:14:00.126Z, 0
2023-09-03T20:16:00.184Z, 0
2023-09-03T20:18:00.153Z, 0
2023-09-03T20:20:00.160Z, 0
2023-09-03T20:22:00.095Z, 0
2023-09-03T20:24:00.148Z, 0
2023-09-03T20:26:00.114Z, 0
2023-09-03T20:28:00.112Z, 0
2023-09-03T20:30:00.141Z, 0
2023-09-03T20:32:00.093Z, 0
2023-09-03T20:34:00.090Z, 0
2023-09-03T20:36:00.152Z, 0
2023-09-03T20:38:00.119Z, 0
2023-09-03T20:40:00.151Z, 0
2023-09-03T20:42:02.425Z, 0
2023-09-03T20:44:00.124Z, 0
2023-09-03T20:46:00.348Z, 0
2023-09-03T20:48:00.210Z, 0
2023-09-03T20:50:00.169Z, 0
2023-09-03T20:52:00.113Z, 0
2023-09-03T20:54:00.125Z, 0
2023-09-03T20:56:00.411Z, 0
2023-09-03T20:58:00.131Z, 0
2023-09-03T21:00:00.266Z, 0
2023-09-03T21:02:00.109Z, 0
2023-09-03T21:04:00.114Z, 0
2023-09-03T21:06:00.115Z, 0
2023-09-03T21:08:00.111Z, 0
2023-09-03T21:10:00.131Z, 0
2023-09-03T21:12:00.119Z, 0
2023-09-03T21:14:00.110Z, 0
2023-09-03T21:16:00.101Z, 0
2023-09-03T21:18:00.234Z, 0
2023-09-03T21:20:00.127Z, 0
2023-09-03T21:22:00.098Z, 0
2023-09-03T21:24:00.143Z, 0
2023-09-03T21:26:00.106Z, 0
2023-09-03T21:28:00.105Z, 0
2023-09-03T21:30:00.121Z, 0
2023-09-03T21:32:00.105Z, 0
2023-09-03T21:34:00.155Z, 0
2023-09-03T21:36:00.121Z, 0
2023-09-03T21:38:00.097Z, 0
2023-09-03T21:40:00.123Z, 0
2023-09-03T21:42:00.119Z, 0
2023-09-03T21:44:00.095Z, 0
2023-09-03T21:46:00.135Z, 0
2023-09-03T21:48:00.251Z, 0
2023-09-03T21:50:00.120Z, 0
2023-09-03T21:52:00.154Z, 0
2023-09-03T21:54:00.122Z, 0
2023-09-03T21:56:00.106Z, 0
2023-09-03T21:58:00.101Z, 0
2023-09-03T22:00:00.161Z, 0
2023-09-03T22:02:00.093Z, 0
2023-09-03T22:04:00.112Z, 0
2023-09-03T22:06:00.133Z, 0
2023-09-03T22:08:00.114Z, 0
2023-09-03T22:10:00.172Z, 0
2023-09-03T22:12:00.349Z, 0
2023-09-03T22:14:00.092Z, 0
2023-09-03T22:16:00.152Z, 0
2023-09-03T22:18:00.134Z, 0
2023-09-03T22:20:00.170Z, 0
2023-09-03T22:22:00.102Z, 0
2023-09-03T22:24:00.113Z, 0
2023-09-03T22:26:00.117Z, 0
2023-09-03T22:28:00.096Z, 0
2023-09-03T22:30:00.130Z, 0
2023-09-03T22:32:00.104Z, 0
2023-09-03T22:34:00.098Z, 0
2023-09-03T22:36:00.110Z, 0
2023-09-03T22:38:00.105Z, 0
2023-09-03T22:40:00.149Z, 0
2023-09-03T22:42:00.114Z, 0
2023-09-03T22:44:00.091Z, 0
2023-09-03T22:46:00.134Z, 0
2023-09-03T22:48:00.165Z, 0
2023-09-03T22:50:00.124Z, 0
2023-09-03T22:52:00.123Z, 0
2023-09-03T22:54:00.118Z, 0
2023-09-03T22:56:00.107Z, 0
2023-09-03T22:58:00.096Z, 0
2023-09-03T23:00:00.235Z, 0
2023-09-03T23:02:00.199Z, 0
2023-09-03T23:04:00.118Z, 0
2023-09-03T23:06:00.130Z, 0
2023-09-03T23:08:00.102Z, 0
2023-09-03T23:10:00.131Z, 0
2023-09-03T23:12:00.120Z, 0
2023-09-03T23:14:00.096Z, 0
2023-09-03T23:16:00.101Z, 0
2023-09-03T23:18:00.168Z, 0
2023-09-03T23:20:00.152Z, 0
2023-09-03T23:22:00.104Z, 0
2023-09-03T23:24:00.139Z, 0
2023-09-03T23:26:00.112Z, 0
2023-09-03T23:28:00.111Z, 0
2023-09-03T23:30:00.148Z, 0
2023-09-03T23:32:00.093Z, 0
2023-09-03T23:34:00.098Z, 0
2023-09-03T23:36:00.138Z, 0
2023-09-03T23:38:00.109Z, 0
2023-09-03T23:40:00.132Z, 0
2023-09-03T23:42:00.112Z, 0
2023-09-03T23:44:00.109Z, 0
2023-09-03T23:46:00.141Z, 0
2023-09-03T23:48:00.142Z, 0
2023-09-03T23:50:00.153Z, 0
2023-09-03T23:52:00.108Z, 0
2023-09-03T23:54:00.118Z, 0
2023-09-03T23:56:00.116Z, 0
2023-09-03T23:58:00.103Z, 0
